Time,TemperatureF,DewpointF,PressureIn,WindDirection,WindDirectionDegrees,WindSpeedMPH,WindSpeedGustMPH,Humidity,HourlyPrecipIn,Conditions,Clouds,dailyrainin,SoftwareType,DateUTC
2013-01-07 00:02:00,30.0,28.0,-100.00,SSE,160,9.0,12.0,92,-99.99,,,-99.99,,2013-01-07 08:02:00,
2013-01-07 00:12:00,30.0,28.0,-100.00,SSE,160,9.0,12.0,92,-99.99,,,-99.99,,2013-01-07 08:12:00,
2013-01-07 01:02:00,30.0,29.0,-100.00,SSE,150,9.0,10.0,96,-99.99,,,-99.99,,2013-01-07 09:02:00,
2013-01-07 01:12:00,30.0,29.0,-100.00,SSE,150,9.0,10.0,96,-99.99,,,-99.99,,2013-01-07 09:12:00,
2013-01-07 02:02:00,31.0,29.0,-100.00,SE,145,7.0,8.0,92,-99.99,,,-99.99,,2013-01-07 10:02:00,
2013-01-07 02:10:00,31.0,29.0,-100.00,SE,135,7.0,8.0,92,-99.99,,,-99.99,,2013-01-07 10:10:00,
2013-01-07 02:12:00,31.0,29.0,-100.00,SE,145,7.0,8.0,92,-99.99,,,-99.99,,2013-01-07 10:12:00,
2013-01-07 03:02:00,31.0,29.0,-100.00,SE,135,7.0,8.0,92,-99.99,,,-99.99,,2013-01-07 11:02:00,
2013-01-07 04:02:00,31.0,29.0,-100.00,SE,125,6.0,8.0,92,-99.99,,,-99.99,,2013-01-07 12:02:00,
2013-01-07 04:12:00,31.0,29.0,-100.00,SE,125,6.0,8.0,92,-99.99,,,-99.99,,2013-01-07 12:12:00,
2013-01-07 05:02:00,31.0,29.0,-100.00,SE,135,12.0,14.0,92,-99.99,,,-99.99,,2013-01-07 13:02:00,
2013-01-07 05:12:00,31.0,29.0,-100.00,SE,135,12.0,14.0,92,-99.99,,,-99.99,,2013-01-07 13:12:00,
2013-01-07 06:03:00,31.0,30.0,-100.00,SE,135,13.0,15.0,96,-99.99,,,-99.99,,2013-01-07 14:03:00,
2013-01-07 06:12:00,31.0,30.0,-100.00,SE,135,13.0,15.0,96,-99.99,,,-99.99,,2013-01-07 14:12:00,
2013-01-07 07:03:00,31.0,30.0,-100.00,SE,140,15.0,20.0,96,-99.99,,,-99.99,,2013-01-07 15:03:00,
2013-01-07 07:10:00,31.0,29.0,-100.00,SE,140,16.0,21.0,92,-99.99,,,-99.99,,2013-01-07 15:10:00,
2013-01-07 07:12:00,31.0,30.0,-100.00,SE,140,15.0,20.0,96,-99.99,,,-99.99,,2013-01-07 15:12:00,
2013-01-07 08:02:00,31.0,29.0,-100.00,SE,140,16.0,21.0,92,-99.99,,,-99.99,,2013-01-07 16:02:00,
2013-01-07 08:10:00,30.0,29.0,-100.00,SE,140,15.0,21.0,96,-99.99,,,-99.99,,2013-01-07 16:10:00,
2013-01-07 09:02:00,30.0,29.0,-100.00,SE,140,15.0,21.0,96,-99.99,,,-99.99,,2013-01-07 17:02:00,
2013-01-07 09:10:00,31.0,29.0,-100.00,SE,130,18.0,23.0,92,-99.99,,,-99.99,,2013-01-07 17:10:00,
2013-01-07 10:02:00,31.0,29.0,-100.00,SE,130,18.0,23.0,92,-99.99,,,-99.99,,2013-01-07 18:02:00,
2013-01-07 10:10:00,31.0,29.0,-100.00,SE,140,16.0,22.0,92,-99.99,,,-99.99,,2013-01-07 18:10:00,
2013-01-07 11:03:00,31.0,29.0,-100.00,SE,140,16.0,22.0,92,-99.99,,,-99.99,,2013-01-07 19:03:00,
2013-01-07 11:10:00,31.0,29.0,-100.00,SE,145,18.0,23.0,92,-99.99,,,-99.99,,2013-01-07 19:10:00,
2013-01-07 12:03:00,31.0,29.0,-100.00,SE,145,18.0,23.0,92,-99.99,,,-99.99,,2013-01-07 20:03:00,
2013-01-07 13:10:00,34.0,32.0,-100.00,SSE,165,18.0,22.0,92,-99.99,,,-99.99,,2013-01-07 21:10:00,
2013-01-07 14:02:00,34.0,32.0,-100.00,SSE,165,18.0,22.0,92,-99.99,,,-99.99,,2013-01-07 22:02:00,
2013-01-07 14:10:00,35.0,33.0,-100.00,South,190,23.0,28.0,92,-99.99,,,-99.99,,2013-01-07 22:10:00,
2013-01-07 15:02:00,35.0,33.0,-100.00,South,190,23.0,28.0,92,-99.99,,,-99.99,,2013-01-07 23:02:00,
2013-01-07 15:10:00,35.0,33.0,-100.00,South,190,24.0,28.0,92,-99.99,,,-99.99,,2013-01-07 23:10:00,
2013-01-07 16:02:00,35.0,33.0,-100.00,South,190,24.0,28.0,92,-99.99,,,-99.99,,2013-01-08 00:02:00,
2013-01-07 16:10:00,36.0,33.0,-100.00,SSW,200,21.0,27.0,88,-99.99,,,-99.99,,2013-01-08 00:10:00,
2013-01-07 17:02:00,36.0,33.0,-100.00,SSW,200,21.0,27.0,88,-99.99,,,-99.99,,2013-01-08 01:02:00,
2013-01-07 18:02:00,36.0,34.0,-100.00,SSW,195,21.0,27.0,92,-99.99,,,-99.99,,2013-01-08 02:02:00,
2013-01-07 18:12:00,36.0,34.0,-100.00,SSW,195,21.0,27.0,92,-99.99,,,-99.99,,2013-01-08 02:12:00,
2013-01-07 19:03:00,36.0,34.0,-100.00,SSW,195,22.0,27.0,92,-99.99,,,-99.99,,2013-01-08 03:03:00,
2013-01-07 19:10:00,36.0,34.0,-100.00,SSW,200,24.0,30.0,92,-99.99,,,-99.99,,2013-01-08 03:10:00,
2013-01-07 19:12:00,36.0,34.0,-100.00,SSW,195,22.0,27.0,92,-99.99,,,-99.99,,2013-01-08 03:12:00,
2013-01-07 20:02:00,36.0,34.0,-100.00,SSW,200,24.0,30.0,92,-99.99,,,-99.99,,2013-01-08 04:02:00,
2013-01-07 20:10:00,35.0,34.0,-100.00,SSW,195,24.0,29.0,96,-99.99,,,-99.99,,2013-01-08 04:10:00,
2013-01-07 21:03:00,35.0,34.0,-100.00,SSW,195,24.0,29.0,96,-99.99,,,-99.99,,2013-01-08 05:03:00,
2013-01-07 22:02:00,35.0,32.0,-100.00,SSW,200,22.0,27.0,88,-99.99,,,-99.99,,2013-01-08 06:02:00,
2013-01-07 22:12:00,35.0,32.0,-100.00,SSW,200,22.0,27.0,88,-99.99,,,-99.99,,2013-01-08 06:12:00,
2013-01-07 23:02:00,35.0,31.0,-100.00,SSW,200,18.0,27.0,85,-99.99,,,-99.99,,2013-01-08 07:02:00,
2013-01-07 23:12:00,35.0,31.0,-100.00,SSW,200,18.0,27.0,85,-99.99,,,-99.99,,2013-01-08 07:12:00,